Time,TemperatureF,DewpointF,PressureIn,WindDirection,WindDirectionDegrees,WindSpeedMPH,WindSpeedGustMPH,Humidity,HourlyPrecipIn,Conditions,Clouds,dailyrainin,SolarRadiationWatts/m^2,SoftwareType,DateUTC
2013-08-15 00:03:00,66.0,63.0,30.30,NNE,29,4.0,9.0,89,0.00,,,0.89,0.000000,,2013-08-15 04:03:00,
2013-08-15 00:12:00,66.0,63.0,30.30,NNE,29,4.0,9.0,89,0.00,,,0.89,0.000000,,2013-08-15 04:12:00,
2013-08-15 00:43:00,67.0,63.0,30.28,ENE,64,4.0,9.0,88,0.00,,,0.89,0.000000,,2013-08-15 04:43:00,
2013-08-15 00:52:00,67.0,63.0,30.28,ENE,64,4.0,9.0,88,0.00,,,0.89,0.000000,,2013-08-15 04:52:00,
2013-08-15 01:02:00,67.0,63.0,30.28,ENE,64,4.0,9.0,88,0.00,,,0.89,0.000000,,2013-08-15 05:02:00,
2013-08-15 01:12:00,67.0,63.0,30.28,ENE,64,4.0,9.0,88,0.00,,,0.89,0.000000,,2013-08-15 05:12:00,
2013-08-15 01:42:00,66.0,63.0,30.30,North,1,3.0,8.0,91,0.01,,,0.11,0.000000,,2013-08-15 05:42:00,
2013-08-15 01:52:00,66.0,63.0,30.30,North,1,3.0,8.0,91,0.01,,,0.11,0.000000,,2013-08-15 05:52:00,
2013-08-15 02:02:00,66.0,63.0,30.30,North,1,3.0,8.0,91,0.01,,,0.11,0.000000,,2013-08-15 06:02:00,
2013-08-15 02:11:00,66.0,63.0,30.30,North,1,3.0,8.0,91,0.01,,,0.11,0.000000,,2013-08-15 06:11:00,
2013-08-15 02:42:00,64.0,63.0,30.30,North,7,4.0,9.0,95,0.01,,,0.07,0.000000,,2013-08-15 06:42:00,
2013-08-15 02:52:00,64.0,63.0,30.30,North,7,4.0,9.0,95,0.01,,,0.07,0.000000,,2013-08-15 06:52:00,
2013-08-15 03:02:00,64.0,63.0,30.30,North,7,4.0,9.0,95,0.01,,,0.07,0.000000,,2013-08-15 07:02:00,
2013-08-15 03:11:00,64.0,63.0,30.30,North,7,4.0,9.0,95,0.01,,,0.07,0.000000,,2013-08-15 07:11:00,
2013-08-15 03:42:00,65.0,64.0,30.30,ENE,57,4.0,13.0,95,0.02,,,0.06,0.000000,,2013-08-15 07:42:00,
2013-08-15 03:52:00,65.0,64.0,30.30,ENE,57,4.0,13.0,95,0.02,,,0.06,0.000000,,2013-08-15 07:52:00,
2013-08-15 04:02:00,65.0,64.0,30.30,ENE,57,4.0,13.0,95,0.02,,,0.06,0.000000,,2013-08-15 08:02:00,
2013-08-15 04:11:00,65.0,64.0,30.30,ENE,57,4.0,13.0,95,0.02,,,0.06,0.000000,,2013-08-15 08:11:00,
2013-08-15 04:42:00,63.0,62.0,30.29,NE,39,5.0,10.0,95,0.00,,,0.06,0.000000,,2013-08-15 08:42:00,
2013-08-15 04:52:00,63.0,62.0,30.29,NE,39,5.0,10.0,95,0.00,,,0.06,0.000000,,2013-08-15 08:52:00,
2013-08-15 05:01:00,63.0,62.0,30.29,NE,39,5.0,10.0,95,0.00,,,0.06,0.000000,,2013-08-15 09:01:00,
2013-08-15 05:11:00,63.0,62.0,30.29,NE,39,5.0,10.0,95,0.00,,,0.06,0.000000,,2013-08-15 09:11:00,
2013-08-15 05:42:00,64.0,63.0,30.32,NNW,344,3.0,7.0,97,0.10,,,0.16,0.000000,,2013-08-15 09:42:00,
2013-08-15 05:53:00,64.0,63.0,30.32,NNW,344,3.0,7.0,97,0.10,,,0.16,0.000000,,2013-08-15 09:53:00,
2013-08-15 06:03:00,64.0,63.0,30.32,NNW,344,3.0,7.0,97,0.10,,,0.16,0.000000,,2013-08-15 10:03:00,
2013-08-15 06:12:00,64.0,63.0,30.32,NNW,344,3.0,7.0,97,0.10,,,0.16,0.000000,,2013-08-15 10:12:00,
2013-08-15 06:42:00,64.0,63.0,30.33,NNE,28,4.0,10.0,98,0.27,,,0.43,0.000000,,2013-08-15 10:42:00,
2013-08-15 06:52:00,64.0,63.0,30.33,NNE,28,4.0,10.0,98,0.27,,,0.43,0.000000,,2013-08-15 10:52:00,
2013-08-15 07:02:00,64.0,63.0,30.33,NNE,28,4.0,10.0,98,0.27,,,0.43,0.000000,,2013-08-15 11:02:00,
2013-08-15 07:12:00,64.0,63.0,30.33,NNE,28,4.0,10.0,98,0.27,,,0.43,0.000000,,2013-08-15 11:12:00,
2013-08-15 07:42:00,63.0,63.0,30.34,NNE,16,6.0,11.0,99,0.14,,,0.57,0.000000,,2013-08-15 11:42:00,
2013-08-15 07:52:00,63.0,63.0,30.34,NNE,16,6.0,11.0,99,0.14,,,0.57,0.000000,,2013-08-15 11:52:00,
2013-08-15 08:01:00,63.0,63.0,30.34,NNE,16,6.0,11.0,99,0.14,,,0.57,0.000000,,2013-08-15 12:01:00,
2013-08-15 08:11:00,63.0,63.0,30.34,NNE,16,6.0,11.0,99,0.14,,,0.57,0.000000,,2013-08-15 12:11:00,
2013-08-15 08:42:00,62.0,62.0,30.34,NNE,17,7.0,15.0,99,0.08,,,0.65,14.000000,,2013-08-15 12:42:00,
2013-08-15 08:52:00,62.0,62.0,30.34,NNE,17,7.0,15.0,99,0.08,,,0.65,14.000000,,2013-08-15 12:52:00,
2013-08-15 09:01:00,62.0,62.0,30.34,NNE,17,7.0,15.0,99,0.08,,,0.65,14.000000,,2013-08-15 13:01:00,
2013-08-15 09:11:00,62.0,62.0,30.34,NNE,17,7.0,15.0,99,0.08,,,0.65,14.000000,,2013-08-15 13:11:00,
2013-08-15 09:42:00,64.0,63.0,30.34,NE,55,6.0,14.0,97,0.00,,,0.65,55.000000,,2013-08-15 13:42:00,
2013-08-15 09:52:00,64.0,63.0,30.34,NE,55,6.0,14.0,97,0.00,,,0.65,55.000000,,2013-08-15 13:52:00,
2013-08-15 10:02:00,64.0,63.0,30.34,NE,55,6.0,14.0,97,0.00,,,0.65,55.000000,,2013-08-15 14:02:00,
2013-08-15 10:13:00,64.0,63.0,30.34,NE,55,6.0,14.0,97,0.00,,,0.65,55.000000,,2013-08-15 14:13:00,
2013-08-15 11:43:00,65.0,64.0,30.35,NNE,31,6.0,14.0,95,0.04,,,0.70,227.000000,,2013-08-15 15:43:00,
2013-08-15 11:54:00,65.0,64.0,30.35,NNE,31,6.0,14.0,95,0.04,,,0.70,227.000000,,2013-08-15 15:54:00,
2013-08-15 12:04:00,65.0,64.0,30.35,NNE,31,6.0,14.0,95,0.04,,,0.70,227.000000,,2013-08-15 16:04:00,
2013-08-15 12:18:00,66.0,65.0,30.35,NNE,14,7.0,13.0,97,0.08,,,-99.99,133.000000,,2013-08-15 16:18:00,
2013-08-15 12:44:00,66.0,65.0,30.35,NNE,14,7.0,13.0,97,0.08,,,-99.99,133.000000,,2013-08-15 16:44:00,
2013-08-15 12:55:00,66.0,65.0,30.35,NNE,14,7.0,13.0,97,0.08,,,-99.99,133.000000,,2013-08-15 16:55:00,
2013-08-15 13:06:00,66.0,65.0,30.35,NNE,14,7.0,13.0,97,0.08,,,-99.99,133.000000,,2013-08-15 17:06:00,
2013-08-15 13:18:00,68.0,67.0,30.35,NE,48,6.0,12.0,95,0.07,,,0.85,189.000000,,2013-08-15 17:18:00,
2013-08-15 13:55:00,68.0,67.0,30.35,NE,48,6.0,12.0,95,0.07,,,0.85,189.000000,,2013-08-15 17:55:00,
2013-08-15 14:00:00,-999.0,-99.9,30.35,NE,48,6.0,12.0,-999,-99.99,,,-99.99,189.000000,,2013-08-15 18:00:00,
2013-08-15 14:10:00,68.0,67.0,30.35,NE,48,6.0,12.0,95,0.07,,,0.85,189.000000,,2013-08-15 18:10:00,
2013-08-15 15:07:00,-999.0,-99.9,30.33,ENE,57,9.0,16.0,-999,0.00,,,0.85,296.000000,,2013-08-15 19:07:00,
2013-08-15 15:17:00,69.0,65.0,30.33,ENE,57,9.0,16.0,86,0.00,,,0.85,296.000000,,2013-08-15 19:17:00,
2013-08-15 15:18:00,72.0,64.0,30.32,ENE,58,9.0,21.0,76,0.00,,,0.85,729.000000,,2013-08-15 19:18:00,
2013-08-15 15:49:00,72.0,64.0,30.32,ENE,58,9.0,21.0,76,0.00,,,0.85,729.000000,,2013-08-15 19:49:00,
2013-08-15 16:14:00,72.0,64.0,30.32,ENE,58,9.0,21.0,76,0.00,,,0.85,729.000000,,2013-08-15 20:14:00,
2013-08-15 16:46:00,70.0,62.0,30.31,NE,43,6.0,19.0,77,0.00,,,0.85,289.000000,,2013-08-15 20:46:00,
2013-08-15 17:05:00,70.0,62.0,30.31,NE,43,6.0,19.0,77,0.00,,,0.85,289.000000,,2013-08-15 21:05:00,
2013-08-15 17:17:00,70.0,62.0,30.31,NE,43,6.0,19.0,77,0.00,,,0.85,289.000000,,2013-08-15 21:17:00,
2013-08-15 17:49:00,70.0,62.0,30.30,ENE,60,7.0,16.0,75,0.00,,,0.85,183.000000,,2013-08-15 21:49:00,
2013-08-15 17:57:00,70.0,62.0,30.30,ENE,60,7.0,16.0,75,0.00,,,0.85,183.000000,,2013-08-15 21:57:00,
2013-08-15 18:09:00,70.0,62.0,30.30,ENE,60,7.0,16.0,75,0.00,,,0.85,183.000000,,2013-08-15 22:09:00,
2013-08-15 18:17:00,70.0,62.0,30.30,ENE,60,7.0,16.0,75,0.00,,,0.85,183.000000,,2013-08-15 22:17:00,
2013-08-15 18:58:00,71.0,63.0,30.30,ENE,77,6.0,15.0,75,0.00,,,0.85,176.000000,,2013-08-15 22:58:00,
2013-08-15 19:08:00,71.0,63.0,30.30,ENE,77,6.0,15.0,75,0.00,,,0.85,176.000000,,2013-08-15 23:08:00,
2013-08-15 19:16:00,71.0,63.0,30.30,ENE,77,6.0,15.0,75,0.00,,,0.85,176.000000,,2013-08-15 23:16:00,
2013-08-15 19:48:00,70.0,65.0,30.31,NNE,15,3.0,13.0,83,0.00,,,0.85,60.000000,,2013-08-15 23:48:00,
2013-08-15 19:55:00,70.0,65.0,30.31,NNE,15,3.0,13.0,83,0.00,,,0.85,60.000000,,2013-08-15 23:55:00,
2013-08-15 20:08:00,70.0,65.0,30.31,NNE,15,3.0,13.0,83,0.00,,,0.85,60.000000,,2013-08-16 00:08:00,
2013-08-15 20:18:00,69.0,64.0,30.32,NE,40,3.0,7.0,85,0.00,,,0.84,9.000000,,2013-08-16 00:18:00,
2013-08-15 20:46:00,69.0,64.0,30.32,NE,40,3.0,7.0,85,0.00,,,0.84,9.000000,,2013-08-16 00:46:00,
2013-08-15 20:52:00,69.0,64.0,30.32,NE,40,3.0,7.0,85,0.00,,,0.84,9.000000,,2013-08-16 00:52:00,
2013-08-15 21:06:00,69.0,64.0,30.32,NE,40,3.0,7.0,85,0.00,,,0.84,9.000000,,2013-08-16 01:06:00,
2013-08-15 21:43:00,-999.0,-99.9,30.32,ESE,121,4.0,-999.0,-999,-99.99,,,-99.99,,,2013-08-16 01:43:00,
2013-08-15 21:54:00,67.0,62.0,30.32,ESE,121,4.0,13.0,83,0.00,,,0.84,0.000000,,2013-08-16 01:54:00,
2013-08-15 22:02:00,67.0,62.0,30.32,ESE,121,4.0,13.0,83,0.00,,,0.84,0.000000,,2013-08-16 02:02:00,
2013-08-15 22:12:00,67.0,62.0,30.32,ESE,121,4.0,13.0,83,0.00,,,0.84,0.000000,,2013-08-16 02:12:00,
2013-08-15 22:44:00,67.0,64.0,30.35,ENE,74,3.0,8.0,89,0.00,,,0.84,0.000000,,2013-08-16 02:44:00,
2013-08-15 22:52:00,67.0,64.0,30.35,ENE,74,3.0,8.0,89,0.00,,,0.84,0.000000,,2013-08-16 02:52:00,
2013-08-15 23:03:00,67.0,64.0,30.35,ENE,74,3.0,8.0,89,0.00,,,0.84,0.000000,,2013-08-16 03:03:00,
2013-08-15 23:11:00,67.0,64.0,30.35,ENE,74,3.0,8.0,89,0.00,,,0.84,0.000000,,2013-08-16 03:11:00,
2013-08-15 23:43:00,66.0,65.0,30.35,NNE,23,3.0,8.0,95,0.01,,,0.85,0.000000,,2013-08-16 03:43:00,
2013-08-15 23:53:00,66.0,65.0,30.35,NNE,23,3.0,8.0,95,0.01,,,0.85,0.000000,,2013-08-16 03:53:00,